Tropical Cyclones
[Index]
Main Index Home Page Stock Weather Photos Extreme Storms Discussion Storm News and Storm Chasing Reports Tropical Cyclones / Hurricanes / Typhoons Weather Data and Links Wild Fires / Bushfires Weather Observation Techniques Weather Picture Catalogue Tornado Pictures and Reports Stock Video Footage and DVDs for sale
Season 1985-1986 Tropical Cyclone RHONDA Track Map
Season 1985-1986 Summaries: [BoM-AU] [JTWC-AU] [JTWC-SIO] [JTWC-SPAC] [JTWC-SH]
<<- Previous TC | BoM 1985-1986 Season | Next TC ->>

click for intensity scale information  Lat/long Grid: Show Hide

 Date Labels: Show Hide

Bureau of Meteorology Tropical Cyclone Data

Name: RHONDA
Number: 686 / 198586_07

17 Feb 1986 00:00 UTC to 21 Feb 1986 00:00 UTC

    date/time    lat    long    hPa   cat  kts
1986-02-17 00   15.7   116.3   1002         29          
1986-02-17 06   15.7   115.3   1002         29          
1986-02-17 12   16.1   115.3   1001         31          
1986-02-17 18   16.5   115.7   1001         31          
1986-02-18 00   16.8   115.2   1001         31          
1986-02-18 06   17.6   114.9   1000         31          
1986-02-18 12   18.0   114.6    994    1    41          
1986-02-18 18   18.4   114.4    992    1    43          
1986-02-19 00   19.0   114.3    985    2    54          
1986-02-19 03   19.3   114.1    984    2    54          
1986-02-19 06   19.6   113.8    984    2    54          
1986-02-19 09   20.0   113.6    982    2    56          
1986-02-19 12   20.4   113.4    978    2    62          
1986-02-19 16   20.9   113.2    976    2    66          
1986-02-19 18   21.6   113.2    974    2    68          
1986-02-19 21   22.3   113.1    970    3    74          
1986-02-20 00   23.3   112.5    968    3    76          
1986-02-20 03   23.8   112.3    968    3    76          
1986-02-20 06   24.4   112.2    970    3    74          
1986-02-20 09   25.0   112.1    970    3    74          
1986-02-20 12   25.6   112.1    975    2    66          
1986-02-20 16   26.3   112.3    980    2    62          
1986-02-20 18   26.6   112.6    985    2    54          
1986-02-20 21   27.1   112.8    990    1    47          
1986-02-21 00   27.5   112.9    995    1    39          
Winds are 10-min average.

Tropical cyclone tracks developed by Michael Bath using data from the Bureau of Meteorology and Google Maps.


[Australian Severe Weather index] [Copyright Notice] [Email Contacts] [Search This Site] [Privacy Policy]
Document: tropical_cyclone_rhonda.htm Updated: 30 May 2013